createdAt,value
2022-10-22T00:01:33.610Z,3.40
2022-10-22T00:06:32.686Z,3.30
2022-10-22T00:11:32.015Z,3.00
2022-10-22T00:16:32.029Z,3.40
2022-10-22T00:21:32.012Z,3.40
2022-10-22T00:26:32.200Z,3.20
2022-10-22T00:31:32.005Z,3.40
2022-10-22T00:36:32.027Z,2.90
2022-10-22T00:41:32.064Z,3.40
2022-10-22T00:46:32.048Z,3.40
2022-10-22T00:51:34.602Z,3.60
2022-10-22T00:56:32.093Z,3.70
2022-10-22T01:01:33.609Z,3.40
2022-10-22T01:06:32.737Z,3.60
2022-10-22T01:11:39.870Z,3.80
2022-10-22T01:16:52.019Z,3.60
2022-10-22T01:21:40.756Z,3.10
2022-10-22T01:26:52.043Z,3.80
2022-10-22T01:31:38.736Z,3.90
2022-10-22T01:36:34.633Z,3.40
2022-10-22T01:41:33.871Z,3.50
2022-10-22T01:46:32.369Z,3.60
2022-10-22T01:51:48.527Z,3.40
2022-10-22T01:56:47.431Z,3.80
2022-10-22T02:01:39.909Z,4.40
2022-10-22T02:06:35.226Z,3.70
2022-10-22T02:11:32.957Z,3.30
2022-10-22T02:16:42.486Z,3.50
2022-10-22T02:21:32.499Z,3.90
2022-10-22T02:26:46.575Z,4.10
2022-10-22T02:31:36.523Z,3.00
2022-10-22T02:36:33.127Z,3.80
2022-10-22T02:41:32.414Z,3.70
2022-10-22T02:46:32.317Z,3.70
2022-10-22T02:51:33.312Z,4.00
2022-10-22T02:56:32.596Z,3.30
2022-10-22T03:01:33.239Z,4.00
2022-10-22T03:06:32.491Z,3.60
2022-10-22T03:11:32.395Z,4.40
2022-10-22T03:16:32.410Z,3.90
2022-10-22T03:21:36.931Z,3.20
2022-10-22T03:26:33.281Z,4.70
2022-10-22T03:31:32.461Z,6.00
2022-10-22T03:36:33.033Z,6.60
2022-10-22T03:41:33.238Z,4.60
2022-10-22T03:46:32.502Z,3.40
2022-10-22T03:51:32.585Z,3.70
2022-10-22T03:56:32.650Z,3.90
2022-10-22T04:01:33.311Z,4.10
2022-10-22T04:06:32.522Z,4.10
2022-10-22T04:11:32.589Z,5.60
2022-10-22T04:16:32.521Z,5.70
2022-10-22T04:21:33.536Z,8.70
2022-10-22T04:26:32.814Z,10.50
2022-10-22T04:31:32.595Z,10.00
2022-10-22T04:36:33.005Z,7.80
2022-10-22T04:41:35.944Z,7.70
2022-10-22T04:46:34.134Z,6.40
2022-10-22T04:51:32.620Z,4.10
2022-10-22T04:56:32.658Z,3.90
2022-10-22T05:01:38.408Z,3.60
2022-10-22T05:06:34.438Z,3.40
2022-10-22T05:11:35.303Z,3.40
2022-10-22T05:16:33.179Z,3.40
2022-10-22T05:21:33.447Z,3.70
2022-10-22T05:26:32.861Z,3.00
2022-10-22T05:31:33.100Z,3.30
2022-10-22T05:36:32.722Z,3.10
2022-10-22T05:41:33.932Z,3.70
2022-10-22T05:46:34.921Z,5.80
2022-10-22T05:51:35.178Z,7.20
2022-10-22T05:56:33.936Z,7.90
2022-10-22T06:01:33.941Z,7.90
2022-10-22T06:06:36.709Z,7.10
2022-10-22T06:11:35.107Z,7.10
2022-10-22T06:16:32.874Z,6.30
2022-10-22T06:21:32.816Z,5.70
2022-10-22T06:26:32.869Z,5.30
2022-10-22T06:31:32.966Z,3.20
2022-10-22T06:36:33.514Z,3.50
2022-10-22T06:41:32.904Z,3.10
2022-10-22T06:46:32.872Z,2.40
2022-10-22T06:51:32.891Z,2.30
2022-10-22T06:56:32.883Z,2.60
2022-10-22T07:01:35.704Z,2.60
2022-10-22T07:06:32.926Z,2.10
2022-10-22T07:11:42.482Z,2.10
2022-10-22T07:16:33.102Z,2.30
2022-10-22T07:21:33.041Z,2.60
2022-10-22T07:26:32.999Z,2.10
2022-10-22T07:31:33.017Z,1.70
2022-10-22T07:36:33.076Z,1.80
2022-10-22T07:41:33.033Z,1.70
2022-10-22T07:46:33.089Z,1.70
2022-10-22T07:51:33.042Z,1.40
2022-10-22T07:56:33.034Z,2.10
2022-10-22T08:01:33.893Z,2.40
2022-10-22T08:06:33.771Z,1.90
2022-10-22T08:11:33.111Z,2.70
2022-10-22T08:16:33.293Z,2.20
2022-10-22T08:21:33.121Z,2.00
2022-10-22T08:26:33.122Z,1.90
2022-10-22T08:31:33.565Z,1.80
2022-10-22T08:36:33.424Z,1.70
2022-10-22T08:41:40.255Z,1.70
2022-10-22T08:46:44.162Z,1.70
2022-10-22T08:51:35.693Z,2.20
2022-10-22T08:56:36.655Z,2.10
2022-10-22T09:01:38.930Z,2.20
2022-10-22T09:06:35.441Z,1.90
2022-10-22T09:11:36.569Z,2.20
2022-10-22T09:16:41.949Z,2.10
2022-10-22T09:21:45.046Z,2.00
2022-10-22T09:26:37.394Z,2.20
2022-10-22T09:31:33.437Z,1.60
2022-10-22T09:36:34.428Z,1.40
2022-10-22T09:41:33.305Z,1.70
2022-10-22T09:46:37.833Z,1.60
2022-10-22T09:51:53.181Z,1.30
2022-10-22T09:56:38.609Z,1.80
2022-10-22T10:01:35.913Z,1.60
2022-10-22T10:06:34.301Z,1.50
2022-10-22T10:11:45.116Z,2.30
2022-10-22T10:16:40.110Z,1.60
2022-10-22T10:21:43.285Z,1.60
2022-10-22T10:26:51.166Z,2.10
2022-10-22T10:31:43.660Z,2.30
2022-10-22T10:36:50.982Z,2.20
2022-10-22T10:41:43.337Z,1.50
2022-10-22T10:46:46.849Z,2.00
2022-10-22T10:51:40.699Z,2.00
2022-10-22T10:56:40.674Z,1.80
2022-10-22T11:01:46.040Z,2.00
2022-10-22T11:06:38.375Z,1.60
2022-10-22T11:11:42.935Z,1.90
2022-10-22T11:16:45.009Z,1.60
2022-10-22T11:21:39.152Z,1.40
2022-10-22T11:26:44.083Z,1.40
2022-10-22T11:31:33.978Z,1.60
2022-10-22T11:36:34.602Z,1.50
2022-10-22T11:41:35.149Z,3.60
2022-10-22T11:46:37.779Z,1.60
2022-10-22T11:51:36.712Z,1.60
2022-10-22T11:56:37.659Z,1.30
2022-10-22T12:01:42.207Z,1.10
2022-10-22T12:06:52.228Z,1.40
2022-10-22T12:11:37.282Z,3.90
2022-10-22T12:16:55.241Z,1.70
2022-10-22T12:21:33.650Z,2.10
2022-10-22T12:26:33.610Z,1.90
2022-10-22T12:31:37.923Z,2.50
2022-10-22T12:36:35.581Z,1.80
2022-10-22T12:41:35.973Z,2.00
2022-10-22T12:46:34.874Z,1.70
2022-10-22T12:51:33.815Z,1.60
2022-10-22T12:56:36.376Z,2.00
2022-10-22T13:01:38.147Z,1.80
2022-10-22T13:06:34.532Z,2.00
2022-10-22T13:11:40.026Z,2.80
2022-10-22T13:16:33.774Z,2.00
2022-10-22T13:21:37.562Z,2.20
2022-10-22T13:26:36.116Z,2.90
2022-10-22T13:31:33.792Z,2.40
2022-10-22T13:36:34.615Z,1.70
2022-10-22T13:46:33.878Z,1.70
2022-10-22T13:51:34.427Z,1.50
2022-10-22T13:56:33.832Z,1.80
2022-10-22T14:01:36.114Z,1.60
2022-10-22T14:06:33.901Z,1.60
2022-10-22T14:11:33.884Z,2.00
2022-10-22T14:16:35.180Z,1.60
2022-10-22T14:21:35.757Z,1.40
2022-10-22T14:26:34.061Z,1.50
2022-10-22T14:31:34.097Z,1.70
2022-10-22T14:36:33.897Z,2.00
2022-10-22T14:41:34.103Z,1.60
2022-10-22T14:46:33.970Z,2.30
2022-10-22T14:51:33.991Z,1.70
2022-10-22T14:56:34.199Z,3.10
2022-10-22T15:01:34.795Z,1.90
2022-10-22T15:06:34.469Z,1.90
2022-10-22T15:11:33.990Z,2.80
2022-10-22T15:16:34.015Z,2.10
2022-10-22T15:21:34.047Z,2.00
2022-10-22T15:26:34.166Z,3.00
2022-10-22T15:31:48.396Z,1.90
2022-10-22T15:36:34.050Z,2.10
2022-10-22T15:41:34.301Z,1.80
2022-10-22T15:46:35.505Z,2.20
2022-10-22T15:51:34.092Z,1.90
2022-10-22T15:56:34.091Z,2.00
2022-10-22T16:01:35.420Z,2.10
2022-10-22T16:06:37.104Z,1.70
2022-10-22T16:11:35.382Z,1.80
2022-10-22T16:16:36.222Z,1.60
2022-10-22T16:21:34.170Z,2.60
2022-10-22T16:26:34.924Z,1.40
2022-10-22T16:31:34.248Z,1.80
2022-10-22T16:36:34.230Z,2.10
2022-10-22T16:41:34.902Z,2.20
2022-10-22T16:46:35.342Z,2.00
2022-10-22T16:51:35.012Z,2.70
2022-10-22T16:56:34.251Z,2.60
2022-10-22T17:01:40.316Z,3.80
2022-10-22T17:06:34.491Z,4.00
2022-10-22T17:11:34.267Z,4.20
2022-10-22T17:16:34.300Z,5.60
2022-10-22T17:21:34.335Z,4.50
2022-10-22T17:26:34.433Z,4.80
2022-10-22T17:31:35.234Z,4.30
2022-10-22T17:36:36.198Z,5.50
2022-10-22T17:41:36.249Z,6.90
2022-10-22T17:46:34.375Z,6.40
2022-10-22T17:51:34.389Z,5.80
2022-10-22T17:56:34.471Z,8.40
2022-10-22T18:01:37.360Z,7.70
2022-10-22T18:06:34.773Z,8.50
2022-10-22T18:11:35.014Z,6.80
2022-10-22T18:16:34.733Z,6.70
2022-10-22T18:21:34.422Z,6.70
2022-10-22T18:26:34.627Z,6.70
2022-10-22T18:31:34.460Z,6.90
2022-10-22T18:36:34.482Z,6.40
2022-10-22T18:41:34.490Z,7.30
2022-10-22T18:46:34.745Z,7.40
2022-10-22T18:51:34.990Z,6.90
2022-10-22T18:56:35.141Z,6.70
2022-10-22T19:01:35.402Z,6.60
2022-10-22T19:06:36.994Z,7.50
2022-10-22T19:11:34.992Z,7.10
2022-10-22T19:16:34.579Z,7.60
2022-10-22T19:21:36.256Z,7.40
2022-10-22T19:26:34.663Z,7.50
2022-10-22T19:31:34.640Z,7.10
2022-10-22T19:36:34.607Z,7.30
2022-10-22T19:41:34.651Z,6.50
2022-10-22T19:46:34.732Z,7.20
2022-10-22T19:51:34.635Z,7.40
2022-10-22T19:56:34.994Z,6.30
2022-10-22T20:01:36.450Z,6.70
2022-10-22T20:06:34.663Z,6.60
2022-10-22T20:11:34.677Z,7.10
2022-10-22T20:16:34.746Z,7.80
2022-10-22T20:21:34.749Z,7.30
2022-10-22T20:26:34.723Z,9.20
2022-10-22T20:31:34.744Z,8.20
2022-10-22T20:36:34.759Z,9.10
2022-10-22T20:41:35.442Z,6.80
2022-10-22T20:46:34.776Z,8.00
2022-10-22T20:51:35.669Z,7.10
2022-10-22T20:56:37.174Z,6.10
2022-10-22T21:01:39.413Z,6.70
2022-10-22T21:06:35.073Z,6.00
2022-10-22T21:11:36.245Z,6.30
2022-10-22T21:16:35.307Z,6.80
2022-10-22T21:21:35.050Z,6.90
2022-10-22T21:26:36.672Z,6.60
2022-10-22T21:31:35.369Z,6.20
2022-10-22T21:36:35.021Z,5.50
2022-10-22T21:41:35.712Z,6.30
2022-10-22T21:46:34.929Z,6.40
2022-10-22T21:51:34.882Z,6.10
2022-10-22T21:56:35.568Z,6.50
2022-10-22T22:01:35.835Z,6.50
2022-10-22T22:06:35.223Z,6.70
2022-10-22T22:11:34.941Z,5.90
2022-10-22T22:16:34.998Z,6.90
2022-10-22T22:21:36.837Z,7.10
2022-10-22T22:26:35.649Z,6.30
2022-10-22T22:31:35.149Z,6.90
2022-10-22T22:36:37.474Z,5.30
2022-10-22T22:41:34.997Z,5.80
2022-10-22T22:46:35.307Z,5.60
2022-10-22T22:51:35.038Z,5.00
2022-10-22T22:56:35.798Z,5.60
2022-10-22T23:01:38.420Z,5.80
2022-10-22T23:06:36.107Z,5.40
2022-10-22T23:11:35.524Z,5.40
2022-10-22T23:16:38.570Z,5.00
2022-10-22T23:21:38.787Z,4.90
2022-10-22T23:26:38.072Z,5.60
2022-10-22T23:31:35.243Z,5.20
2022-10-22T23:36:36.308Z,5.20
2022-10-22T23:41:36.067Z,5.10
2022-10-22T23:46:36.027Z,5.10
2022-10-22T23:51:35.618Z,5.60
2022-10-22T23:56:35.253Z,5.90
